Meteo Giornale » Osservazioni meteo Italia » Ronchi Dei Legionari

ore: 20:50 - Osservazioni Meteo Ronchi Dei Legionari
Lat. 45° 49' N Lon. 13° 29' E Alt. 12 metri s.l.m.

molto_nuvoloso Europe/Rome

27 °C

Molto Nuvoloso

Temp. 24 Ore

20 °C

29 °C

Est

20.3 Km/h

Dew point 16 °C

Umidità 50 %

Visibilità  10 Km

Il sole sorge alle ore 05:15

Il sole tramonta alle ore 21:02

Data e Ora Cielo e Fenomeni T °C DP °C Um. % Pres. hPa Vis. km Vento km/h
Oggi h: 20:50 molto_nuvoloso Molto Nuvoloso 27 16 50 1012 10 E 20.3
Oggi h: 20:20 molto_nuvoloso Molto Nuvoloso 27 15 47 1012 10 E 22.2
Oggi h: 19:50 poco_nuvoloso Poco Nuvoloso 27 15 47 1012 10 E 22.2
Oggi h: 19:20 poco_nuvoloso Poco Nuvoloso 27 15 47 1012 10 E 22.2
Oggi h: 18:50 molto_nuvoloso Molto Nuvoloso 28 15 45 1012 10 E 24
Oggi h: 18:20 poco_nuvoloso Poco Nuvoloso 28 16 48 1011 10 E 18.5
Oggi h: 17:50 molto_nuvoloso Molto Nuvoloso 29 15 42 1011 10 E 20.3
Oggi h: 17:20 poco_nuvoloso Poco Nuvoloso 28 15 45 1011 10 E 22.2
Oggi h: 16:50 molto_nuvoloso Molto Nuvoloso 28 15 45 1011 10 E 24
Oggi h: 16:20 molto_nuvoloso Molto Nuvoloso 28 14 42 1012 10 E 22.2
Oggi h: 15:50 molto_nuvoloso Molto Nuvoloso 27 14 44 1012 10 E/NE 18.5
Oggi h: 15:20 molto_nuvoloso Molto Nuvoloso 27 14 44 1012 10 E 20.3
Oggi h: 14:50 molto_nuvoloso Molto Nuvoloso 26 13 44 1013 10 E 24
Oggi h: 14:20 molto_nuvoloso Molto Nuvoloso 26 13 44 1013 10 E 25.9
Oggi h: 13:50 coperto Coperto 26 13 44 1013 10 E 25.9
Oggi h: 13:20 coperto Coperto 26 13 44 1014 10 E 16.7
Oggi h: 12:50 molto_nuvoloso Molto Nuvoloso 25 13 47 1014 10 E/NE 18.5
Oggi h: 12:20 molto_nuvoloso Molto Nuvoloso 25 14 50 1014 10 E 22.2
Oggi h: 11:50 molto_nuvoloso Molto Nuvoloso 26 13 44 1013 10 E 27.8
Oggi h: 11:20 molto_nuvoloso Molto Nuvoloso 26 13 44 1013 10 E 24
Oggi h: 10:50 nuvoloso Nuvoloso 27 14 44 1013 10 E/NE 14.8
Oggi h: 10:20 sereno Sereno 28 15 45 1012 10 E/NE 14.8
Oggi h: 09:50 sereno Sereno 26 13 44 1012 10 E/NE 9.3
Oggi h: 09:20 molto_nuvoloso Molto Nuvoloso 25 14 50 1012 10 E/NE 11.1
Oggi h: 08:50 molto_nuvoloso Molto Nuvoloso 25 15 53 1012 10 N 5.5
Oggi h: 08:20 molto_nuvoloso Molto Nuvoloso 25 15 53 1012 10 N 5.5
Oggi h: 07:50 molto_nuvoloso Molto Nuvoloso 25 14 50 1012 10 E/NE 14.8
Oggi h: 07:20 molto_nuvoloso Molto Nuvoloso 25 13 47 1012 10 E 16.7
Oggi h: 06:50 molto_nuvoloso Molto Nuvoloso 21 15 68 1012 10 N 5.5
Oggi h: 06:20 molto_nuvoloso Molto Nuvoloso 21 15 68 1012 10 N 1.8
Oggi h: 05:50 nuvoloso Nuvoloso 22 14 60 1012 10 N/NE 7.4
Oggi h: 05:20 coperto Coperto 22 15 64 1012 10 N/NO 7.4
Oggi h: 04:50 molto_nuvoloso Molto Nuvoloso 23 14 56 1012 10 N 1.8
Oggi h: 04:20 molto_nuvoloso Molto Nuvoloso 21 16 73 1012 10 O/SO 9.3
Oggi h: 03:50 coperto_pioggia Pioggia Debole 23 15 60 1012 10 N 5.5
Oggi h: 03:20 coperto Coperto 22 15 64 1012 10 N 9.3
Oggi h: 02:50 coperto Coperto 23 14 56 1012 10 NE 7.4
Oggi h: 02:20 molto_nuvoloso Molto Nuvoloso 21 16 73 1012 10 N 5.5
Oggi h: 01:50 molto_nuvoloso Molto Nuvoloso 20 17 82 1012 10 N 5.5
Oggi h: 01:20 coperto Coperto 22 15 64 1012 10 N 5.5
Oggi h: 00:50 molto_nuvoloso Molto Nuvoloso 24 14 53 1012 10 N 5.5
Oggi h: 00:20 molto_nuvoloso Molto Nuvoloso 25 13 47 1012 10 E/NE 9.3
Ieri h: 23:50 coperto Coperto 23 15 60 1012 10 N 5.5
Ieri h: 23:20 coperto Coperto 25 14 50 1012 10 N 3.7
Ieri h: 22:50 coperto Coperto 25 14 50 1012 10 E 7.4
Ieri h: 22:20 coperto Coperto 25 13 47 1012 10 E 13
Ieri h: 21:50 coperto Coperto 25 14 50 1012 10 E 11.1